createdAt,value
2022-10-23T00:01:47.274Z,100400.98
2022-10-23T00:04:17.957Z,100403.13
2022-10-23T00:06:46.822Z,100400.92
2022-10-23T00:09:18.102Z,100395.30
2022-10-23T00:11:50.965Z,100394.17
2022-10-23T00:14:21.592Z,100391.04
2022-10-23T00:16:49.369Z,100392.08
2022-10-23T00:19:18.254Z,100388.84
2022-10-23T00:21:46.150Z,100388.06
2022-10-23T00:24:13.797Z,100389.41
2022-10-23T00:26:41.761Z,100396.66
2022-10-23T00:29:10.932Z,100394.66
2022-10-23T00:31:38.961Z,100394.70
2022-10-23T00:34:08.575Z,100394.09
2022-10-23T00:36:37.268Z,100392.52
2022-10-23T00:39:05.753Z,100390.69
2022-10-23T00:41:34.895Z,100394.09
2022-10-23T00:44:30.890Z,100391.48
2022-10-23T00:46:59.796Z,100391.39
2022-10-23T00:49:29.405Z,100390.06
2022-10-23T00:52:01.413Z,100386.58
2022-10-23T00:54:34.147Z,100390.34
2022-10-23T00:57:05.503Z,100387.45
2022-10-23T00:59:34.332Z,100388.25
2022-10-23T01:02:02.751Z,100389.25
2022-10-23T01:04:32.833Z,100392.73
2022-10-23T01:07:38.388Z,100392.31
2022-10-23T01:10:38.955Z,100396.57
2022-10-23T01:13:30.882Z,100403.34
2022-10-23T01:16:18.617Z,100406.84
2022-10-23T01:19:13.359Z,100407.77
2022-10-23T01:21:56.065Z,100408.08
2022-10-23T01:25:17.848Z,100404.30
2022-10-23T01:27:53.035Z,100410.04
2022-10-23T01:30:23.199Z,100407.89
2022-10-23T01:33:33.997Z,100404.78
2022-10-23T01:36:06.280Z,100404.20
2022-10-23T01:39:00.336Z,100405.13
2022-10-23T01:41:49.203Z,100408.91
2022-10-23T01:44:36.476Z,100409.86
2022-10-23T01:47:08.352Z,100411.36
2022-10-23T01:49:48.419Z,100419.48
2022-10-23T01:52:20.184Z,100418.29
2022-10-23T01:54:53.419Z,100421.73
2022-10-23T01:57:23.777Z,100416.49
2022-10-23T01:59:56.828Z,100421.07
2022-10-23T02:02:26.611Z,100419.67
2022-10-23T02:05:09.447Z,100419.89
2022-10-23T02:07:38.411Z,100421.02
2022-10-23T02:10:08.318Z,100424.53
2022-10-23T02:12:51.802Z,100420.91
2022-10-23T02:15:33.255Z,100421.67
2022-10-23T02:18:31.270Z,100428.01
2022-10-23T02:21:13.810Z,100432.67
2022-10-23T02:24:08.004Z,100428.55
2022-10-23T02:26:42.338Z,100430.89
2022-10-23T02:29:25.901Z,100426.20
2022-10-23T02:31:53.983Z,100423.34
2022-10-23T02:34:22.205Z,100425.06
2022-10-23T02:36:50.062Z,100427.93
2022-10-23T02:39:24.503Z,100431.44
2022-10-23T02:42:03.707Z,100430.19
2022-10-23T02:45:03.598Z,100432.52
2022-10-23T02:47:51.038Z,100426.60
2022-10-23T02:50:49.876Z,100428.95
2022-10-23T02:53:27.872Z,100431.08
2022-10-23T02:56:13.994Z,100427.48
2022-10-23T02:58:54.952Z,100421.98
2022-10-23T03:01:33.981Z,100428.23
2022-10-23T03:04:05.708Z,100429.75
2022-10-23T03:06:33.832Z,100432.55
2022-10-23T03:09:07.947Z,100434.00
2022-10-23T03:11:35.830Z,100436.96
2022-10-23T03:14:04.120Z,100437.65
2022-10-23T03:16:32.323Z,100436.42
2022-10-23T03:19:00.137Z,100435.41
2022-10-23T03:21:30.787Z,100435.77
2022-10-23T03:23:58.722Z,100433.00
2022-10-23T03:26:34.084Z,100434.06
2022-10-23T03:29:02.188Z,100430.94
2022-10-23T03:31:29.869Z,100436.42
2022-10-23T03:33:59.658Z,100435.91
2022-10-23T03:36:27.492Z,100438.98
2022-10-23T03:38:56.679Z,100438.05
2022-10-23T03:41:24.355Z,100442.58
2022-10-23T03:43:52.533Z,100442.80
2022-10-23T03:46:20.197Z,100443.09
2022-10-23T03:48:53.684Z,100440.39
2022-10-23T03:51:21.370Z,100439.73
2022-10-23T03:53:49.002Z,100441.71
2022-10-23T03:56:17.626Z,100441.06
2022-10-23T03:58:45.487Z,100435.39
2022-10-23T04:01:14.022Z,100431.00
2022-10-23T04:03:42.095Z,100430.80
2022-10-23T04:06:09.795Z,100431.33
2022-10-23T04:08:38.504Z,100430.12
2022-10-23T04:11:13.390Z,100424.49
2022-10-23T04:13:46.425Z,100423.27
2022-10-23T04:16:14.678Z,100422.70
2022-10-23T04:18:42.915Z,100417.96
2022-10-23T04:21:12.156Z,100417.59
2022-10-23T04:23:40.643Z,100415.46
2022-10-23T04:26:16.700Z,100415.77
2022-10-23T04:28:44.901Z,100416.41
2022-10-23T04:31:12.873Z,100416.20
2022-10-23T04:33:44.151Z,100415.56
2022-10-23T04:36:26.279Z,100417.78
2022-10-23T04:38:53.946Z,100423.17
2022-10-23T04:41:21.791Z,100424.11
2022-10-23T04:43:49.978Z,100429.14
2022-10-23T04:46:18.454Z,100431.36
2022-10-23T04:48:48.402Z,100428.31
2022-10-23T04:51:16.511Z,100433.11
2022-10-23T04:54:10.768Z,100436.72
2022-10-23T04:57:04.818Z,100441.89
2022-10-23T04:59:48.815Z,100442.55
2022-10-23T05:02:16.844Z,100442.81
2022-10-23T05:04:44.440Z,100444.34
2022-10-23T05:07:30.943Z,100448.27
2022-10-23T05:10:18.818Z,100448.89
2022-10-23T05:12:57.002Z,100453.30
2022-10-23T05:15:25.160Z,100454.42
2022-10-23T05:17:58.134Z,100453.77
2022-10-23T05:20:33.521Z,100458.85
2022-10-23T05:23:03.093Z,100455.23
2022-10-23T05:25:31.384Z,100463.27
2022-10-23T05:28:06.738Z,100465.56
2022-10-23T05:30:34.851Z,100466.46
2022-10-23T05:33:04.007Z,100462.60
2022-10-23T05:35:39.845Z,100462.39
2022-10-23T05:38:08.574Z,100461.64
2022-10-23T05:43:15.930Z,100460.70
2022-10-23T05:45:50.052Z,100460.02
2022-10-23T05:48:35.731Z,100463.85
2022-10-23T05:51:11.600Z,100463.64
2022-10-23T05:54:09.290Z,100463.05
2022-10-23T05:56:45.117Z,100454.91
2022-10-23T05:59:34.512Z,100451.65
2022-10-23T06:02:21.355Z,100448.55
2022-10-23T06:05:02.494Z,100453.62
2022-10-23T06:07:46.760Z,100454.50
2022-10-23T06:10:15.005Z,100450.12
2022-10-23T06:12:45.440Z,100442.59
2022-10-23T06:15:16.378Z,100449.40
2022-10-23T06:17:55.194Z,100460.41
2022-10-23T06:20:26.593Z,100460.94
2022-10-23T06:23:05.141Z,100466.65
2022-10-23T06:25:56.674Z,100473.02
2022-10-23T06:28:31.963Z,100478.66
2022-10-23T06:31:00.475Z,100479.90
2022-10-23T06:33:28.190Z,100476.77
2022-10-23T06:35:56.533Z,100475.97
2022-10-23T06:38:24.971Z,100479.65
2022-10-23T06:40:56.838Z,100479.05
2022-10-23T06:43:36.183Z,100480.67
2022-10-23T06:46:32.910Z,100485.86
2022-10-23T06:49:19.086Z,100485.24
2022-10-23T06:51:48.695Z,100486.78
2022-10-23T06:54:17.518Z,100494.92
2022-10-23T06:56:51.427Z,100495.45
2022-10-23T06:59:23.244Z,100496.62
2022-10-23T07:04:26.416Z,100488.86
2022-10-23T07:06:57.994Z,100492.73
2022-10-23T07:09:30.001Z,100497.38
2022-10-23T07:11:57.850Z,100493.16
2022-10-23T07:14:32.366Z,100489.73
2022-10-23T07:17:01.835Z,100485.93
2022-10-23T07:19:29.753Z,100483.28
2022-10-23T07:21:59.291Z,100485.45
2022-10-23T07:24:49.691Z,100476.02
2022-10-23T07:27:23.387Z,100478.71
2022-10-23T07:29:56.070Z,100478.94
2022-10-23T07:32:24.867Z,100480.86
2022-10-23T07:35:12.576Z,100483.85
2022-10-23T07:37:46.252Z,100482.80
2022-10-23T07:40:14.567Z,100486.65
2022-10-23T07:42:45.130Z,100484.73
2022-10-23T07:45:13.237Z,100480.41
2022-10-23T07:47:44.037Z,100476.04
2022-10-23T07:50:13.570Z,100472.64
2022-10-23T07:52:41.499Z,100463.85
2022-10-23T07:55:11.746Z,100467.94
2022-10-23T07:57:47.095Z,100468.02
2022-10-23T08:00:33.144Z,100470.52
2022-10-23T08:03:08.544Z,100475.65
2022-10-23T08:05:37.174Z,100478.75
2022-10-23T08:08:05.146Z,100483.20
2022-10-23T08:10:33.317Z,100492.59
2022-10-23T08:13:01.227Z,100492.17
2022-10-23T08:15:53.508Z,100489.98
2022-10-23T08:18:42.813Z,100496.13
2022-10-23T08:21:11.214Z,100495.46
2022-10-23T08:23:39.138Z,100493.27
2022-10-23T08:26:07.278Z,100493.98
2022-10-23T08:28:36.417Z,100490.36
2022-10-23T08:31:10.096Z,100488.16
2022-10-23T08:33:39.414Z,100490.21
2022-10-23T08:36:20.672Z,100488.63
2022-10-23T08:38:49.206Z,100483.11
2022-10-23T08:41:35.172Z,100488.57
2022-10-23T08:44:45.162Z,100493.95
2022-10-23T08:47:19.701Z,100497.08
2022-10-23T08:50:31.144Z,100498.02
2022-10-23T08:53:04.841Z,100501.37
2022-10-23T08:55:45.138Z,100503.59
2022-10-23T08:58:24.737Z,100501.40
2022-10-23T09:00:52.954Z,100503.21
2022-10-23T09:03:21.801Z,100504.30
2022-10-23T09:06:09.031Z,100505.35
2022-10-23T09:09:12.901Z,100507.27
2022-10-23T09:11:59.750Z,100503.75
2022-10-23T09:14:30.104Z,100506.09
2022-10-23T09:17:28.958Z,100503.92
2022-10-23T09:20:31.567Z,100501.23
2022-10-23T09:23:02.009Z,100501.61
2022-10-23T09:25:36.781Z,100495.91
2022-10-23T09:28:05.741Z,100493.02
2022-10-23T09:30:41.482Z,100491.20
2022-10-23T09:33:18.621Z,100492.46
2022-10-23T09:35:51.889Z,100495.50
2022-10-23T09:38:45.501Z,100493.58
2022-10-23T09:41:17.939Z,100496.42
2022-10-23T09:43:45.569Z,100502.36
2022-10-23T09:46:14.035Z,100498.64
2022-10-23T09:48:44.918Z,100500.33
2022-10-23T09:51:19.799Z,100505.33
2022-10-23T09:53:51.655Z,100501.70
2022-10-23T09:56:40.253Z,100497.29
2022-10-23T09:59:10.984Z,100484.42
2022-10-23T10:01:51.919Z,100485.60
2022-10-23T10:04:40.949Z,100482.14
2022-10-23T10:07:24.647Z,100477.36
2022-10-23T10:09:57.539Z,100477.25
2022-10-23T10:12:38.127Z,100475.86
2022-10-23T10:15:31.040Z,100476.60
2022-10-23T10:18:16.043Z,100475.66
2022-10-23T10:20:54.906Z,100480.23
2022-10-23T10:23:32.510Z,100479.27
2022-10-23T10:26:16.054Z,100468.45
2022-10-23T10:28:46.928Z,100464.71
2022-10-23T10:31:26.738Z,100462.68
2022-10-23T10:34:33.478Z,100459.52
2022-10-23T10:37:13.675Z,100456.20
2022-10-23T10:40:07.362Z,100457.58
2022-10-23T10:43:05.525Z,100449.80
2022-10-23T10:45:38.201Z,100446.65
2022-10-23T10:48:30.493Z,100445.04
2022-10-23T10:51:37.663Z,100439.91
2022-10-23T10:54:18.942Z,100438.85
2022-10-23T10:56:48.236Z,100433.58
2022-10-23T10:59:15.872Z,100432.54
2022-10-23T11:01:52.678Z,100428.30
2022-10-23T11:04:37.159Z,100427.13
2022-10-23T11:07:13.273Z,100421.49
2022-10-23T11:09:42.654Z,100419.89
2022-10-23T11:12:40.200Z,100417.67
2022-10-23T11:15:34.451Z,100413.52
2022-10-23T11:18:12.681Z,100415.13
2022-10-23T11:20:46.722Z,100412.67
2022-10-23T11:23:38.395Z,100409.70
2022-10-23T11:26:46.877Z,100412.38
2022-10-23T11:29:33.184Z,100410.81
2022-10-23T11:32:26.062Z,100408.48
2022-10-23T11:35:24.165Z,100416.91
2022-10-23T11:38:00.994Z,100416.21
2022-10-23T11:40:29.199Z,100412.12
2022-10-23T11:42:57.064Z,100404.55
2022-10-23T11:45:43.094Z,100397.95
2022-10-23T11:48:13.754Z,100395.09
2022-10-23T11:50:44.399Z,100388.73
2022-10-23T11:53:30.972Z,100389.33
2022-10-23T11:56:25.220Z,100393.58
2022-10-23T11:58:55.922Z,100386.85
2022-10-23T12:01:24.482Z,100381.45
2022-10-23T12:04:00.382Z,100373.17
2022-10-23T12:06:37.600Z,100365.54
2022-10-23T12:09:21.989Z,100367.40
2022-10-23T12:12:07.010Z,100366.15
2022-10-23T12:14:39.583Z,100362.48
2022-10-23T12:17:31.682Z,100355.59
2022-10-23T12:20:21.411Z,100346.92
2022-10-23T12:23:19.202Z,100337.98
2022-10-23T12:25:52.528Z,100335.92
2022-10-23T12:28:26.483Z,100326.32
2022-10-23T12:31:25.789Z,100325.01
2022-10-23T12:34:01.246Z,100318.77
2022-10-23T12:37:17.681Z,100313.27
2022-10-23T12:39:52.678Z,100303.65
2022-10-23T12:42:25.655Z,100303.54
2022-10-23T12:45:00.796Z,100299.35
2022-10-23T12:47:30.539Z,100295.23
2022-10-23T12:49:58.323Z,100294.00
2022-10-23T12:52:26.262Z,100295.46
2022-10-23T12:54:54.233Z,100290.77
2022-10-23T12:57:28.193Z,100287.41
2022-10-23T12:59:59.275Z,100294.03
2022-10-23T13:02:30.329Z,100291.38
2022-10-23T13:05:02.272Z,100289.58
2022-10-23T13:07:37.632Z,100287.20
2022-10-23T13:10:06.268Z,100283.40
2022-10-23T13:12:39.128Z,100280.02
2022-10-23T13:15:06.900Z,100279.73
2022-10-23T13:17:39.336Z,100280.77
2022-10-23T13:20:24.190Z,100277.05
2022-10-23T13:23:00.753Z,100271.85
2022-10-23T13:25:32.087Z,100266.91
2022-10-23T13:28:08.764Z,100261.54
2022-10-23T13:30:42.094Z,100250.91
2022-10-23T13:33:21.940Z,100253.55
2022-10-23T13:35:57.756Z,100257.77
2022-10-23T13:38:29.836Z,100259.92
2022-10-23T13:41:02.758Z,100260.21
2022-10-23T13:43:32.845Z,100261.32
2022-10-23T13:46:01.847Z,100256.14
2022-10-23T13:48:30.449Z,100260.21
2022-10-23T13:51:06.639Z,100258.36
2022-10-23T13:53:34.432Z,100252.35
2022-10-23T13:56:02.126Z,100254.70
2022-10-23T13:58:29.775Z,100247.81
2022-10-23T14:00:58.968Z,100250.23
2022-10-23T14:03:26.635Z,100249.94
2022-10-23T14:05:54.353Z,100248.52
2022-10-23T14:08:22.297Z,100250.83
2022-10-23T14:10:49.939Z,100258.61
2022-10-23T14:13:17.597Z,100253.45
2022-10-23T14:15:53.292Z,100256.14
2022-10-23T14:18:21.251Z,100259.88
2022-10-23T14:20:49.232Z,100255.23
2022-10-23T14:23:16.889Z,100254.58
2022-10-23T14:25:44.542Z,100251.84
2022-10-23T14:28:12.221Z,100253.62
2022-10-23T14:30:39.823Z,100247.79
2022-10-23T14:33:07.538Z,100249.36
2022-10-23T14:35:39.672Z,100252.77
2022-10-23T14:38:07.301Z,100253.61
2022-10-23T14:40:38.756Z,100251.34
2022-10-23T14:43:06.493Z,100242.88
2022-10-23T14:45:34.150Z,100240.77
2022-10-23T14:48:02.652Z,100239.27
2022-10-23T14:50:36.494Z,100233.89
2022-10-23T14:53:04.343Z,100232.71
2022-10-23T14:55:32.059Z,100229.24
2022-10-23T14:57:59.638Z,100226.83
2022-10-23T15:00:27.536Z,100219.47
2022-10-23T15:02:55.169Z,100223.50
2022-10-23T15:05:22.844Z,100221.59
2022-10-23T15:07:50.610Z,100216.27
2022-10-23T15:10:18.546Z,100216.42
2022-10-23T15:12:46.688Z,100216.67
2022-10-23T15:15:14.646Z,100216.50
2022-10-23T15:17:42.412Z,100218.41
2022-10-23T15:20:10.396Z,100219.23
2022-10-23T15:22:38.024Z,100219.20
2022-10-23T15:25:06.296Z,100218.92
2022-10-23T15:27:33.923Z,100218.21
2022-10-23T15:30:01.777Z,100214.77
2022-10-23T15:32:30.498Z,100214.91
2022-10-23T15:35:00.055Z,100215.17
2022-10-23T15:37:27.923Z,100214.68
2022-10-23T15:39:59.701Z,100215.16
2022-10-23T15:42:29.994Z,100216.69
2022-10-23T15:44:57.824Z,100215.97
2022-10-23T15:47:25.468Z,100216.20
2022-10-23T15:49:53.349Z,100214.36
2022-10-23T15:52:21.100Z,100216.36
2022-10-23T15:54:48.700Z,100219.95
2022-10-23T15:57:16.389Z,100228.75
2022-10-23T15:59:44.188Z,100228.95
2022-10-23T16:02:12.179Z,100228.67
2022-10-23T16:04:40.187Z,100228.95
2022-10-23T16:07:08.962Z,100232.48
2022-10-23T16:09:37.310Z,100233.92
2022-10-23T16:12:05.268Z,100237.63
2022-10-23T16:14:32.962Z,100238.86
2022-10-23T16:17:00.607Z,100238.30
2022-10-23T16:19:28.482Z,100246.25
2022-10-23T16:21:56.229Z,100250.63
2022-10-23T16:24:23.985Z,100248.29
2022-10-23T16:26:53.485Z,100249.20
2022-10-23T16:29:23.595Z,100247.17
2022-10-23T16:31:55.638Z,100246.47
2022-10-23T16:34:23.721Z,100245.11
2022-10-23T16:36:51.421Z,100245.23
2022-10-23T16:39:39.100Z,100241.79
2022-10-23T16:42:25.780Z,100241.38
2022-10-23T16:45:10.525Z,100233.46
2022-10-23T16:47:38.168Z,100232.09
2022-10-23T16:50:06.057Z,100232.20
2022-10-23T16:52:34.605Z,100227.90
2022-10-23T16:55:02.376Z,100230.70
2022-10-23T16:57:30.095Z,100230.55
2022-10-23T16:59:57.950Z,100233.73
2022-10-23T17:02:25.639Z,100229.39
2022-10-23T17:04:53.480Z,100225.54
2022-10-23T17:07:24.231Z,100226.01
2022-10-23T17:09:52.066Z,100222.70
2022-10-23T17:12:19.702Z,100222.30
2022-10-23T17:14:47.886Z,100216.00
2022-10-23T17:17:15.559Z,100211.92
2022-10-23T17:19:46.308Z,100210.71
2022-10-23T17:22:15.355Z,100213.10
2022-10-23T17:24:46.156Z,100216.20
2022-10-23T17:27:16.921Z,100222.64
2022-10-23T17:29:44.528Z,100218.56
2022-10-23T17:32:12.222Z,100222.77
2022-10-23T17:34:40.342Z,100226.99
2022-10-23T17:37:08.984Z,100225.14
2022-10-23T17:39:36.575Z,100217.84
2022-10-23T17:42:04.538Z,100221.56
2022-10-23T17:44:32.389Z,100227.14
2022-10-23T17:47:00.229Z,100220.42
2022-10-23T17:49:28.229Z,100207.83
2022-10-23T17:51:57.420Z,100199.45
2022-10-23T17:54:27.248Z,100199.13
2022-10-23T17:56:56.099Z,100197.75
2022-10-23T17:59:23.951Z,100190.77
2022-10-23T18:01:52.109Z,100189.45
2022-10-23T18:04:21.167Z,100187.40
2022-10-23T18:06:51.297Z,100184.14
2022-10-23T18:09:21.492Z,100177.48
2022-10-23T18:11:49.883Z,100177.67
2022-10-23T18:14:19.613Z,100179.89
2022-10-23T18:16:47.685Z,100178.54
2022-10-23T18:19:18.506Z,100176.42
2022-10-23T18:21:47.298Z,100173.11
2022-10-23T18:24:15.795Z,100174.15
2022-10-23T18:26:44.413Z,100174.27
2022-10-23T18:29:12.758Z,100175.96
2022-10-23T18:31:41.319Z,100180.34
2022-10-23T18:34:15.646Z,100177.11
2022-10-23T18:36:43.907Z,100178.86
2022-10-23T18:39:14.834Z,100172.36
2022-10-23T18:41:44.633Z,100166.63
2022-10-23T18:44:17.242Z,100164.59
2022-10-23T18:46:46.876Z,100161.77
2022-10-23T18:49:17.321Z,100166.02
2022-10-23T18:51:45.389Z,100162.34
2022-10-23T18:54:15.826Z,100165.69
2022-10-23T18:56:44.517Z,100160.27
2022-10-23T18:59:15.730Z,100159.94
2022-10-23T19:01:43.831Z,100158.02
2022-10-23T19:04:14.159Z,100164.95
2022-10-23T19:06:42.402Z,100158.27
2022-10-23T19:09:11.848Z,100151.24
2022-10-23T19:11:41.255Z,100146.21
2022-10-23T19:14:09.600Z,100140.75
2022-10-23T19:16:50.213Z,100135.57
2022-10-23T19:19:22.594Z,100127.86
2022-10-23T19:21:50.756Z,100122.17
2022-10-23T19:24:23.671Z,100117.14
2022-10-23T19:26:51.930Z,100122.65
2022-10-23T19:29:23.294Z,100126.98
2022-10-23T19:31:51.863Z,100129.48
2022-10-23T19:34:22.594Z,100130.41
2022-10-23T19:36:52.499Z,100133.56
2022-10-23T19:39:20.679Z,100132.36
2022-10-23T19:41:51.438Z,100125.88
2022-10-23T19:44:20.387Z,100119.44
2022-10-23T19:46:48.698Z,100118.70
2022-10-23T19:49:17.213Z,100112.38
2022-10-23T19:51:50.921Z,100111.62
2022-10-23T19:54:20.812Z,100110.40
2022-10-23T19:56:48.931Z,100114.48
2022-10-23T19:59:17.041Z,100113.05
2022-10-23T20:01:47.841Z,100102.81
2022-10-23T20:04:18.660Z,100099.86
2022-10-23T20:06:47.563Z,100107.59
2022-10-23T20:09:15.468Z,100108.76
2022-10-23T20:11:45.471Z,100109.33
2022-10-23T20:14:13.858Z,100103.10
2022-10-23T20:16:45.224Z,100093.73
2022-10-23T20:21:50.204Z,100084.78
2022-10-23T20:24:19.058Z,100083.91
2022-10-23T20:26:50.005Z,100087.20
2022-10-23T20:29:18.219Z,100082.58
2022-10-23T20:31:46.194Z,100077.05
2022-10-23T20:34:13.984Z,100076.31
2022-10-23T20:36:46.767Z,100070.27
2022-10-23T20:39:26.974Z,100061.11
2022-10-23T20:41:56.386Z,100054.30
2022-10-23T20:44:24.340Z,100052.58
2022-10-23T20:46:52.539Z,100060.48
2022-10-23T20:49:20.827Z,100067.59
2022-10-23T20:51:55.706Z,100071.86
2022-10-23T20:54:26.111Z,100079.48
2022-10-23T20:56:53.939Z,100084.72
2022-10-23T20:59:21.808Z,100086.86
2022-10-23T21:01:53.090Z,100083.55
2022-10-23T21:04:24.435Z,100078.34
2022-10-23T21:07:10.676Z,100073.06
2022-10-23T21:09:40.302Z,100065.27
2022-10-23T21:12:08.640Z,100063.02
2022-10-23T21:14:36.773Z,100050.53
2022-10-23T21:17:04.589Z,100055.02
2022-10-23T21:19:33.504Z,100055.58
2022-10-23T21:22:01.161Z,100056.01
2022-10-23T21:24:28.886Z,100053.39
2022-10-23T21:26:56.754Z,100055.36
2022-10-23T21:29:24.488Z,100050.86
2022-10-23T21:31:57.987Z,100046.78
2022-10-23T21:34:27.019Z,100042.25
2022-10-23T21:39:44.191Z,100021.29
2022-10-23T21:42:13.546Z,100024.87
2022-10-23T21:44:41.245Z,100029.14
2022-10-23T21:47:09.590Z,100039.04
2022-10-23T21:49:37.246Z,100029.45
2022-10-23T21:52:05.003Z,100016.92
2022-10-23T21:54:33.042Z,100015.77
2022-10-23T21:57:03.327Z,100010.73
2022-10-23T21:59:33.200Z,100006.07
2022-10-23T22:02:04.243Z,100000.65
2022-10-23T22:04:32.063Z,99995.63
2022-10-23T22:07:00.024Z,99991.14
2022-10-23T22:09:27.845Z,99987.34
2022-10-23T22:11:56.135Z,99987.58
2022-10-23T22:14:23.745Z,99995.64
2022-10-23T22:16:52.439Z,99998.70
2022-10-23T22:19:22.233Z,99991.77
2022-10-23T22:21:50.861Z,99986.48
2022-10-23T22:24:19.332Z,99978.86
2022-10-23T22:26:50.191Z,99981.09
2022-10-23T22:29:24.221Z,99975.70
2022-10-23T22:31:52.707Z,99973.46
2022-10-23T22:34:48.404Z,99973.90
2022-10-23T22:37:14.338Z,99967.56
2022-10-23T22:39:42.561Z,99959.35
2022-10-23T22:42:11.520Z,99957.38
2022-10-23T22:44:39.378Z,99954.06
2022-10-23T22:47:07.491Z,99956.97
2022-10-23T22:49:35.173Z,99956.98
2022-10-23T22:52:03.112Z,99963.41
2022-10-23T22:54:31.644Z,99973.83
2022-10-23T22:56:59.375Z,99976.87
2022-10-23T22:59:27.146Z,99976.03
2022-10-23T23:01:55.134Z,99976.80
2022-10-23T23:04:39.213Z,99983.27
2022-10-23T23:07:11.180Z,99980.67
2022-10-23T23:09:44.583Z,99976.54
2022-10-23T23:12:14.063Z,99979.77
2022-10-23T23:14:42.978Z,99982.95
2022-10-23T23:17:11.473Z,99978.80
2022-10-23T23:19:39.569Z,99973.66
2022-10-23T23:22:07.406Z,99980.44
2022-10-23T23:24:35.166Z,99983.46
2022-10-23T23:27:02.794Z,99994.27
2022-10-23T23:29:31.171Z,99997.23
2022-10-23T23:31:59.033Z,99994.48
2022-10-23T23:34:26.706Z,99994.61
2022-10-23T23:36:54.457Z,99989.40
2022-10-23T23:39:22.325Z,99988.10
2022-10-23T23:41:50.011Z,99990.49
2022-10-23T23:44:17.802Z,99991.27
2022-10-23T23:46:45.625Z,99983.16
2022-10-23T23:49:13.204Z,99984.35
2022-10-23T23:51:40.973Z,99985.77
2022-10-23T23:54:08.774Z,99988.23
2022-10-23T23:56:36.446Z,99993.58
2022-10-23T23:59:04.755Z,99999.08
